createdAt,value
2022-10-04T00:02:03.090Z,95410.28
2022-10-04T00:04:35.005Z,95416.50
2022-10-04T00:07:07.849Z,95413.56
2022-10-04T00:09:42.098Z,95416.25
2022-10-04T00:12:18.542Z,95423.97
2022-10-04T00:14:45.961Z,95425.53
2022-10-04T00:17:18.636Z,95435.69
2022-10-04T00:19:48.054Z,95430.47
2022-10-04T00:22:44.482Z,95437.94
2022-10-04T00:25:13.590Z,95450.94
2022-10-04T00:28:01.239Z,95442.34
2022-10-04T00:30:38.070Z,95435.44
2022-10-04T00:33:04.959Z,95445.88
2022-10-04T00:35:31.846Z,95441.50
2022-10-04T00:38:26.193Z,95440.72
2022-10-04T00:41:02.106Z,95431.56
2022-10-04T00:43:41.758Z,95432.13
2022-10-04T00:46:22.521Z,95424.88
2022-10-04T00:48:56.322Z,95411.34
2022-10-04T00:51:28.537Z,95414.69
2022-10-04T00:54:00.251Z,95413.00
2022-10-04T00:56:38.174Z,95403.38
2022-10-04T00:59:39.665Z,95404.38
2022-10-04T01:02:28.098Z,95402.72
2022-10-04T01:04:59.623Z,95407.78
2022-10-04T01:07:35.531Z,95409.38
2022-10-04T01:10:09.083Z,95410.94
2022-10-04T01:12:57.093Z,95402.97
2022-10-04T01:15:37.346Z,95398.75
2022-10-04T01:18:14.624Z,95401.69
2022-10-04T01:21:10.247Z,95399.78
2022-10-04T01:23:49.518Z,95403.06
2022-10-04T01:26:32.523Z,95405.53
2022-10-04T01:29:03.803Z,95396.53
2022-10-04T01:31:34.227Z,95378.03
2022-10-04T01:34:02.818Z,95369.00
2022-10-04T01:36:29.706Z,95382.44
2022-10-04T01:38:57.265Z,95376.09
2022-10-04T01:41:30.173Z,95365.19
2022-10-04T01:44:00.987Z,95365.72
2022-10-04T01:46:36.433Z,95365.97
2022-10-04T01:49:10.498Z,95373.16
2022-10-04T01:51:44.229Z,95375.38
2022-10-04T01:54:17.197Z,95363.88
2022-10-04T01:56:53.830Z,95364.31
2022-10-04T01:59:32.984Z,95374.38
2022-10-04T02:02:06.542Z,95380.56
2022-10-04T02:04:38.994Z,95355.38
2022-10-04T02:07:13.702Z,95371.19
2022-10-04T02:09:44.465Z,95366.47
2022-10-04T02:12:17.111Z,95359.53
2022-10-04T02:14:52.707Z,95338.22
2022-10-04T02:17:28.271Z,95351.97
2022-10-04T02:19:56.572Z,95337.75
2022-10-04T02:22:25.622Z,95341.19
2022-10-04T02:24:55.910Z,95343.44
2022-10-04T02:27:29.395Z,95343.72
2022-10-04T02:30:11.082Z,95347.66
2022-10-04T02:33:02.459Z,95350.13
2022-10-04T02:35:35.826Z,95357.16
2022-10-04T02:38:24.573Z,95342.41
2022-10-04T02:41:08.794Z,95350.44
2022-10-04T02:43:45.409Z,95336.59
2022-10-04T02:46:24.493Z,95346.75
2022-10-04T02:48:58.686Z,95332.44
2022-10-04T02:51:31.441Z,95340.16
2022-10-04T02:54:08.280Z,95341.16
2022-10-04T02:56:36.983Z,95329.19
2022-10-04T02:59:05.755Z,95341.97
2022-10-04T03:01:52.860Z,95355.09
2022-10-04T03:04:26.829Z,95349.75
2022-10-04T03:06:56.052Z,95347.41
2022-10-04T03:09:29.502Z,95355.19
2022-10-04T03:11:57.216Z,95346.44
2022-10-04T03:14:26.437Z,95344.41
2022-10-04T03:16:56.522Z,95357.41
2022-10-04T03:19:26.945Z,95354.97
2022-10-04T03:21:57.817Z,95351.03
2022-10-04T03:24:38.494Z,95350.50
2022-10-04T03:27:09.254Z,95340.09
2022-10-04T03:29:43.194Z,95345.53
2022-10-04T03:32:16.543Z,95347.81
2022-10-04T03:34:52.430Z,95348.81
2022-10-04T03:37:21.266Z,95334.31
2022-10-04T03:39:54.187Z,95335.22
2022-10-04T03:42:34.302Z,95331.78
2022-10-04T03:45:05.817Z,95329.53
2022-10-04T03:47:39.306Z,95339.16
2022-10-04T03:50:29.320Z,95336.00
2022-10-04T03:52:59.912Z,95341.50
2022-10-04T03:55:38.794Z,95325.06
2022-10-04T03:58:07.091Z,95320.66
2022-10-04T04:00:40.432Z,95312.59
2022-10-04T04:03:15.636Z,95324.34
2022-10-04T04:05:53.378Z,95318.66
2022-10-04T04:08:28.530Z,95319.91
2022-10-04T04:10:58.158Z,95324.00
2022-10-04T04:14:06.736Z,95329.22
2022-10-04T04:16:36.318Z,95329.97
2022-10-04T04:19:11.172Z,95326.19
2022-10-04T04:21:38.362Z,95330.34
2022-10-04T04:24:19.230Z,95322.59
2022-10-04T04:26:50.384Z,95307.06
2022-10-04T04:29:24.652Z,95301.03
2022-10-04T04:32:17.349Z,95283.78
2022-10-04T04:35:08.859Z,95285.94
2022-10-04T04:37:36.945Z,95272.47
2022-10-04T04:40:25.583Z,95281.50
2022-10-04T04:42:52.853Z,95296.81
2022-10-04T04:45:25.781Z,95302.28
2022-10-04T04:47:56.788Z,95304.31
2022-10-04T04:50:27.910Z,95303.31
2022-10-04T04:53:14.607Z,95307.72
2022-10-04T04:56:02.725Z,95307.28
2022-10-04T04:58:38.069Z,95319.44
2022-10-04T05:01:14.036Z,95322.25
2022-10-04T05:03:41.536Z,95324.13
2022-10-04T05:06:28.237Z,95311.03
2022-10-04T05:08:55.215Z,95301.94
2022-10-04T05:11:25.645Z,95305.28
2022-10-04T05:14:00.829Z,95301.97
2022-10-04T05:16:40.082Z,95307.28
2022-10-04T05:19:13.463Z,95291.19
2022-10-04T05:21:44.704Z,95284.94
2022-10-04T05:24:18.454Z,95299.44
2022-10-04T05:26:49.275Z,95298.22
2022-10-04T05:29:21.372Z,95305.81
2022-10-04T05:31:58.711Z,95308.53
2022-10-04T05:34:29.089Z,95310.94
2022-10-04T05:37:10.270Z,95307.63
2022-10-04T05:39:48.294Z,95309.56
2022-10-04T05:42:27.077Z,95303.88
2022-10-04T05:44:58.256Z,95305.28
2022-10-04T05:47:30.709Z,95303.25
2022-10-04T05:50:00.143Z,95321.09
2022-10-04T05:52:36.177Z,95288.94
2022-10-04T05:55:12.112Z,95263.97
2022-10-04T05:57:44.866Z,95297.88
2022-10-04T06:00:17.786Z,95300.84
2022-10-04T06:03:03.519Z,95300.91
2022-10-04T06:05:52.010Z,95298.31
2022-10-04T06:08:43.877Z,95309.00
2022-10-04T06:11:29.541Z,95299.28
2022-10-04T06:14:14.591Z,95287.19
2022-10-04T06:16:59.315Z,95302.00
2022-10-04T06:20:02.977Z,95331.81
2022-10-04T06:22:30.410Z,95319.69
2022-10-04T06:25:09.483Z,95325.38
2022-10-04T06:27:50.177Z,95342.06
2022-10-04T06:30:19.697Z,95321.03
2022-10-04T06:33:10.774Z,95268.59
2022-10-04T06:35:57.062Z,95276.03
2022-10-04T06:38:54.602Z,95281.53
2022-10-04T06:41:59.713Z,95282.00
2022-10-04T06:45:07.186Z,95281.81
2022-10-04T06:48:10.922Z,95258.16
2022-10-04T06:50:55.959Z,95226.84
2022-10-04T06:53:52.753Z,95225.66
2022-10-04T06:56:26.049Z,95213.59
2022-10-04T06:59:17.389Z,95227.53
2022-10-04T07:02:00.469Z,95242.63
2022-10-04T07:05:06.933Z,95244.56
2022-10-04T07:07:37.989Z,95248.34
2022-10-04T07:10:22.795Z,95247.31
2022-10-04T07:13:16.357Z,95231.38
2022-10-04T07:15:55.909Z,95247.59
2022-10-04T07:18:29.103Z,95264.94
2022-10-04T07:21:11.741Z,95251.09
2022-10-04T07:23:52.539Z,95240.56
2022-10-04T07:26:48.852Z,95241.50
2022-10-04T07:29:22.201Z,95241.06
2022-10-04T07:32:13.507Z,95255.81
2022-10-04T07:35:26.600Z,95265.66
2022-10-04T07:38:18.307Z,95273.09
2022-10-04T07:41:12.665Z,95289.94
2022-10-04T07:43:51.600Z,95302.88
2022-10-04T07:46:38.617Z,95300.34
2022-10-04T07:49:11.619Z,95297.59
2022-10-04T07:51:45.941Z,95292.25
2022-10-04T07:54:16.275Z,95263.47
2022-10-04T07:56:42.966Z,95276.66
2022-10-04T07:59:33.005Z,95275.56
2022-10-04T08:02:18.958Z,95292.81
2022-10-04T08:05:07.874Z,95318.59
2022-10-04T08:08:03.832Z,95315.69
2022-10-04T08:10:58.144Z,95310.41
2022-10-04T08:13:46.030Z,95309.69
2022-10-04T08:16:32.961Z,95322.69
2022-10-04T08:19:36.630Z,95328.94
2022-10-04T08:22:12.101Z,95314.59
2022-10-04T08:24:59.007Z,95297.69
2022-10-04T08:28:17.487Z,95347.56
2022-10-04T08:31:12.266Z,95322.56
2022-10-04T08:33:42.318Z,95327.78
2022-10-04T08:36:46.659Z,95310.88
2022-10-04T08:39:42.247Z,95300.47
2022-10-04T08:42:37.063Z,95330.47
2022-10-04T08:45:22.275Z,95331.47
2022-10-04T08:47:58.314Z,95309.50
2022-10-04T08:51:02.832Z,95333.41
2022-10-04T08:54:00.558Z,95376.47
2022-10-04T08:56:53.211Z,95324.13
2022-10-04T08:59:40.987Z,95371.75
2022-10-04T09:02:13.653Z,95348.38
2022-10-04T09:05:19.670Z,95346.66
2022-10-04T09:08:20.523Z,95358.56
2022-10-04T09:11:11.359Z,95350.69
2022-10-04T09:14:02.816Z,95339.09
2022-10-04T09:16:55.218Z,95328.31
2022-10-04T09:19:32.976Z,95335.09
2022-10-04T09:22:19.889Z,95352.06
2022-10-04T09:24:52.582Z,95359.09
2022-10-04T09:27:57.018Z,95342.34
2022-10-04T09:30:33.273Z,95353.00
2022-10-04T09:33:28.282Z,95343.06
2022-10-04T09:35:54.977Z,95372.09
2022-10-04T09:38:41.163Z,95376.28
2022-10-04T09:41:55.229Z,95366.16
2022-10-04T09:44:52.845Z,95387.31
2022-10-04T09:47:38.256Z,95397.47
2022-10-04T09:50:26.854Z,95397.75
2022-10-04T09:53:08.122Z,95357.47
2022-10-04T09:55:53.267Z,95346.38
2022-10-04T09:58:36.145Z,95370.31
2022-10-04T10:01:02.812Z,95368.16
2022-10-04T10:04:14.502Z,95376.81
2022-10-04T10:07:11.818Z,95386.38
2022-10-04T10:10:03.223Z,95375.81
2022-10-04T10:13:05.235Z,95391.91
2022-10-04T10:15:40.763Z,95377.28
2022-10-04T10:18:29.410Z,95338.75
2022-10-04T10:21:41.053Z,95371.63
2022-10-04T10:24:33.729Z,95358.31
2022-10-04T10:27:25.081Z,95362.59
2022-10-04T10:29:59.462Z,95341.88
2022-10-04T10:32:35.381Z,95338.81
2022-10-04T10:35:23.424Z,95356.25
2022-10-04T10:38:10.333Z,95377.75
2022-10-04T10:40:59.961Z,95370.06
2022-10-04T10:44:10.945Z,95363.75
2022-10-04T10:46:55.617Z,95360.59
2022-10-04T10:49:44.621Z,95361.38
2022-10-04T10:52:35.980Z,95376.72
2022-10-04T10:55:34.426Z,95351.03
2022-10-04T10:58:16.203Z,95358.28
2022-10-04T11:00:58.429Z,95382.50
2022-10-04T11:03:53.781Z,95351.41
2022-10-04T11:06:29.749Z,95376.88
2022-10-04T11:09:15.031Z,95395.75
2022-10-04T11:11:56.611Z,95373.22
2022-10-04T11:14:38.348Z,95360.66
2022-10-04T11:17:13.442Z,95364.19
2022-10-04T11:20:05.843Z,95345.78
2022-10-04T11:22:54.844Z,95345.38
2022-10-04T11:25:25.306Z,95351.66
2022-10-04T11:28:18.449Z,95347.31
2022-10-04T11:30:46.142Z,95338.94
2022-10-04T11:33:22.174Z,95328.53
2022-10-04T11:35:58.571Z,95363.41
2022-10-04T11:38:50.050Z,95361.47
2022-10-04T11:41:43.011Z,95348.94
2022-10-04T11:44:52.441Z,95316.22
2022-10-04T11:47:37.566Z,95313.28
2022-10-04T11:50:27.551Z,95339.81
2022-10-04T11:53:25.969Z,95322.75
2022-10-04T11:56:19.419Z,95328.38
2022-10-04T11:59:00.385Z,95330.94
2022-10-04T12:01:48.646Z,95365.97
2022-10-04T12:04:30.721Z,95343.81
2022-10-04T12:07:27.451Z,95342.78
2022-10-04T12:10:15.787Z,95329.41
2022-10-04T12:13:09.787Z,95304.28
2022-10-04T12:16:12.937Z,95338.16
2022-10-04T12:18:53.453Z,95329.47
2022-10-04T12:21:41.596Z,95298.28
2022-10-04T12:24:29.819Z,95297.44
2022-10-04T12:27:02.939Z,95318.00
2022-10-04T12:29:51.583Z,95327.16
2022-10-04T12:32:24.691Z,95360.13
2022-10-04T12:35:06.661Z,95341.06
2022-10-04T12:37:42.868Z,95345.56
2022-10-04T12:40:09.854Z,95332.72
2022-10-04T12:42:58.606Z,95314.53
2022-10-04T12:45:30.543Z,95307.22
2022-10-04T12:48:05.828Z,95313.97
2022-10-04T12:51:00.190Z,95323.91
2022-10-04T12:53:34.684Z,95293.25
2022-10-04T12:56:07.029Z,95276.94
2022-10-04T12:58:52.226Z,95310.00
2022-10-04T13:01:53.073Z,95310.03
2022-10-04T13:04:32.746Z,95312.00
2022-10-04T13:07:38.122Z,95318.41
2022-10-04T13:10:25.074Z,95295.47
2022-10-04T13:13:11.426Z,95297.72
2022-10-04T13:18:48.337Z,95294.00
2022-10-04T13:21:41.196Z,95321.66
2022-10-04T13:24:16.896Z,95323.06
2022-10-04T13:27:14.146Z,95317.97
2022-10-04T13:29:56.561Z,95328.25
2022-10-04T13:32:29.200Z,95325.28
2022-10-04T13:35:14.523Z,95307.69
2022-10-04T13:37:54.122Z,95311.28
2022-10-04T13:40:30.759Z,95292.31
2022-10-04T13:43:22.432Z,95314.41
2022-10-04T13:46:15.429Z,95311.47
2022-10-04T13:48:51.084Z,95297.16
2022-10-04T13:51:26.641Z,95317.03
2022-10-04T13:54:21.035Z,95300.00
2022-10-04T13:56:56.690Z,95332.38
2022-10-04T13:59:34.776Z,95296.19
2022-10-04T14:02:13.529Z,95279.53
2022-10-04T14:04:57.163Z,95308.38
2022-10-04T14:07:48.210Z,95310.91
2022-10-04T14:10:29.862Z,95311.38
2022-10-04T14:13:03.354Z,95314.44
2022-10-04T14:15:36.242Z,95316.47
2022-10-04T14:18:32.258Z,95288.59
2022-10-04T14:21:19.539Z,95345.44
2022-10-04T14:24:17.095Z,95352.47
2022-10-04T14:27:08.457Z,95329.72
2022-10-04T14:29:45.264Z,95327.88
2022-10-04T14:32:28.556Z,95345.34
2022-10-04T14:35:15.526Z,95341.50
2022-10-04T14:37:45.522Z,95335.66
2022-10-04T14:40:21.577Z,95332.72
2022-10-04T14:43:15.283Z,95337.31
2022-10-04T14:46:00.122Z,95344.25
2022-10-04T14:48:56.127Z,95335.97
2022-10-04T14:51:40.186Z,95316.72
2022-10-04T14:54:29.137Z,95317.97
2022-10-04T14:57:00.722Z,95301.13
2022-10-04T14:59:33.478Z,95329.66
2022-10-04T15:02:03.739Z,95298.00
2022-10-04T15:04:57.306Z,95308.13
2022-10-04T15:07:39.496Z,95297.22
2022-10-04T15:10:32.928Z,95297.19
2022-10-04T15:13:25.746Z,95290.16
2022-10-04T15:16:08.920Z,95289.03
2022-10-04T15:18:47.421Z,95285.16
2022-10-04T15:21:44.076Z,95269.03
2022-10-04T15:24:27.508Z,95294.28
2022-10-04T15:27:15.978Z,95287.59
2022-10-04T15:30:17.222Z,95276.13
2022-10-04T15:32:46.830Z,95278.47
2022-10-04T15:35:22.162Z,95274.72
2022-10-04T15:38:22.322Z,95276.50
2022-10-04T15:41:08.401Z,95294.84
2022-10-04T15:44:13.303Z,95267.06
2022-10-04T15:47:01.673Z,95265.38
2022-10-04T15:49:49.783Z,95278.44
2022-10-04T15:52:38.118Z,95269.34
2022-10-04T15:55:20.942Z,95268.59
2022-10-04T15:57:47.556Z,95270.56
2022-10-04T16:00:20.189Z,95248.06
2022-10-04T16:02:49.591Z,95242.03
2022-10-04T16:05:22.472Z,95227.38
2022-10-04T16:08:10.005Z,95241.09
2022-10-04T16:11:04.022Z,95244.78
2022-10-04T16:13:43.116Z,95238.66
2022-10-04T16:16:40.097Z,95257.16
2022-10-04T16:19:48.994Z,95239.44
2022-10-04T16:22:19.422Z,95256.53
2022-10-04T16:24:50.576Z,95256.22
2022-10-04T16:27:35.937Z,95253.69
2022-10-04T16:30:44.172Z,95252.94
2022-10-04T16:33:43.224Z,95260.25
2022-10-04T16:36:14.663Z,95259.78
2022-10-04T16:39:05.653Z,95257.03
2022-10-04T16:41:41.367Z,95254.47
2022-10-04T16:44:46.661Z,95252.81
2022-10-04T16:47:48.821Z,95257.69
2022-10-04T16:50:54.191Z,95272.34
2022-10-04T16:53:39.518Z,95287.72
2022-10-04T16:56:17.858Z,95251.53
2022-10-04T16:58:44.876Z,95263.19
2022-10-04T17:01:23.693Z,95280.53
2022-10-04T17:04:27.946Z,95275.75
2022-10-04T17:07:13.636Z,95267.63
2022-10-04T17:09:49.550Z,95265.38
2022-10-04T17:12:40.969Z,95267.91
2022-10-04T17:15:15.345Z,95257.94
2022-10-04T17:17:42.951Z,95256.13
2022-10-04T17:20:51.217Z,95264.91
2022-10-04T17:23:46.726Z,95267.97
2022-10-04T17:26:22.406Z,95288.59
2022-10-04T17:28:49.737Z,95285.19
2022-10-04T17:31:44.019Z,95286.56
2022-10-04T17:34:30.322Z,95272.00
2022-10-04T17:37:20.939Z,95282.00
2022-10-04T17:40:10.226Z,95277.47
2022-10-04T17:43:00.228Z,95276.84
2022-10-04T17:45:48.383Z,95287.94
2022-10-04T17:48:37.939Z,95289.59
2022-10-04T17:51:41.461Z,95285.56
2022-10-04T17:54:38.842Z,95283.34
2022-10-04T17:57:05.530Z,95278.44
2022-10-04T17:59:52.962Z,95280.41
2022-10-04T18:02:22.937Z,95273.47
2022-10-04T18:04:55.701Z,95294.94
2022-10-04T18:07:38.880Z,95290.38
2022-10-04T18:10:27.459Z,95283.88
2022-10-04T18:13:25.422Z,95277.41
2022-10-04T18:16:14.469Z,95281.03
2022-10-04T18:18:43.639Z,95287.59
2022-10-04T18:21:22.395Z,95262.28
2022-10-04T18:24:19.682Z,95256.69
2022-10-04T18:27:05.081Z,95250.94
2022-10-04T18:30:00.779Z,95278.19
2022-10-04T18:32:27.743Z,95278.69
2022-10-04T18:34:59.862Z,95281.56
2022-10-04T18:37:39.490Z,95312.56
2022-10-04T18:40:28.615Z,95302.41
2022-10-04T18:42:57.955Z,95313.06
2022-10-04T18:45:33.816Z,95311.06
2022-10-04T18:48:13.755Z,95320.44
2022-10-04T18:50:47.327Z,95326.78
2022-10-04T18:53:44.891Z,95326.56
2022-10-04T18:56:13.210Z,95326.38
2022-10-04T18:59:32.774Z,95317.91
2022-10-04T19:02:34.845Z,95318.16
2022-10-04T19:05:24.030Z,95297.03
2022-10-04T19:08:07.538Z,95306.31
2022-10-04T19:10:50.235Z,95306.38
2022-10-04T19:13:45.041Z,95304.66
2022-10-04T19:16:20.674Z,95306.22
2022-10-04T19:18:57.421Z,95309.53
2022-10-04T19:21:39.965Z,95321.84
2022-10-04T19:24:25.607Z,95296.84
2022-10-04T19:27:03.125Z,95277.38
2022-10-04T19:30:18.139Z,95300.94
2022-10-04T19:32:57.400Z,95310.16
2022-10-04T19:35:43.319Z,95321.03
2022-10-04T19:38:37.274Z,95335.75
2022-10-04T19:41:27.199Z,95333.78
2022-10-04T19:44:14.329Z,95335.28
2022-10-04T19:46:46.691Z,95330.31
2022-10-04T19:49:26.559Z,95330.03
2022-10-04T19:52:01.342Z,95350.53
2022-10-04T19:54:36.618Z,95352.22
2022-10-04T19:57:12.432Z,95338.72
2022-10-04T19:59:41.957Z,95332.19
2022-10-04T20:02:13.690Z,95306.13
2022-10-04T20:04:42.507Z,95314.63
2022-10-04T20:07:26.515Z,95323.94
2022-10-04T20:09:54.245Z,95330.59
2022-10-04T20:12:39.132Z,95325.22
2022-10-04T20:15:15.637Z,95296.25
2022-10-04T20:17:44.503Z,95313.41
2022-10-04T20:20:16.402Z,95332.59
2022-10-04T20:22:52.318Z,95336.53
2022-10-04T20:25:45.964Z,95324.03
2022-10-04T20:28:28.180Z,95350.88
2022-10-04T20:31:03.273Z,95328.97
2022-10-04T20:33:33.077Z,95312.31
2022-10-04T20:36:01.010Z,95316.59
2022-10-04T20:38:46.941Z,95330.47
2022-10-04T20:41:29.489Z,95311.63
2022-10-04T20:43:58.198Z,95323.69
2022-10-04T20:46:27.061Z,95316.75
2022-10-04T20:48:55.023Z,95323.44
2022-10-04T20:51:24.609Z,95309.78
2022-10-04T20:53:51.835Z,95321.16
2022-10-04T20:56:31.325Z,95310.88
2022-10-04T20:59:04.050Z,95325.31
2022-10-04T21:01:45.847Z,95324.28
2022-10-04T21:04:12.666Z,95338.72
2022-10-04T21:06:56.716Z,95349.63
2022-10-04T21:09:24.901Z,95343.97
2022-10-04T21:11:53.118Z,95344.28
2022-10-04T21:14:37.799Z,95348.75
2022-10-04T21:17:25.391Z,95351.91
2022-10-04T21:19:52.269Z,95358.03
2022-10-04T21:22:19.152Z,95361.13
2022-10-04T21:24:48.996Z,95363.53
2022-10-04T21:27:38.080Z,95367.81
2022-10-04T21:30:14.500Z,95358.13
2022-10-04T21:32:41.444Z,95361.09
2022-10-04T21:35:09.264Z,95360.41
2022-10-04T21:37:36.672Z,95358.22
2022-10-04T21:40:05.433Z,95362.09
2022-10-04T21:42:32.259Z,95369.22
2022-10-04T21:44:58.993Z,95357.38
2022-10-04T21:47:25.696Z,95356.25
2022-10-04T21:49:52.809Z,95368.69
2022-10-04T21:52:19.693Z,95371.69
2022-10-04T21:54:47.307Z,95381.28
2022-10-04T21:57:14.074Z,95380.94
2022-10-04T21:59:40.809Z,95380.56
2022-10-04T22:02:07.919Z,95385.63
2022-10-04T22:04:34.993Z,95384.78
2022-10-04T22:07:02.193Z,95394.06
2022-10-04T22:09:29.258Z,95390.75
2022-10-04T22:11:56.129Z,95394.72
2022-10-04T22:14:22.911Z,95408.38
2022-10-04T22:16:50.411Z,95403.50
2022-10-04T22:19:17.634Z,95402.47
2022-10-04T22:21:44.302Z,95392.16
2022-10-04T22:24:17.707Z,95385.13
2022-10-04T22:26:45.864Z,95394.72
2022-10-04T22:29:17.849Z,95385.56
2022-10-04T22:31:53.667Z,95393.13
2022-10-04T22:34:22.877Z,95399.66
2022-10-04T22:36:52.171Z,95383.22
2022-10-04T22:39:20.403Z,95368.91
2022-10-04T22:42:00.985Z,95379.38
2022-10-04T22:44:38.871Z,95381.50
2022-10-04T22:47:11.303Z,95388.56
2022-10-04T22:49:41.766Z,95393.56
2022-10-04T22:52:21.480Z,95401.94
2022-10-04T22:54:50.759Z,95393.91
2022-10-04T22:57:19.342Z,95395.09
2022-10-04T22:59:52.949Z,95400.56
2022-10-04T23:02:28.089Z,95379.47
2022-10-04T23:05:02.321Z,95393.97
2022-10-04T23:07:29.376Z,95380.28
2022-10-04T23:09:56.111Z,95395.16
2022-10-04T23:12:22.888Z,95385.22
2022-10-04T23:14:49.646Z,95382.75
2022-10-04T23:17:50.965Z,95386.34
2022-10-04T23:20:20.544Z,95398.09
2022-10-04T23:22:50.450Z,95376.81
2022-10-04T23:25:30.650Z,95391.88
2022-10-04T23:28:01.509Z,95395.72
2022-10-04T23:30:28.473Z,95398.19
2022-10-04T23:32:58.480Z,95391.09
2022-10-04T23:35:30.450Z,95389.75
2022-10-04T23:37:57.704Z,95389.13
2022-10-04T23:40:25.832Z,95394.84
2022-10-04T23:42:56.530Z,95394.25
2022-10-04T23:45:25.912Z,95400.13
2022-10-04T23:47:58.949Z,95395.41
2022-10-04T23:50:29.777Z,95396.19
2022-10-04T23:53:02.667Z,95391.03
2022-10-04T23:55:35.204Z,95392.22
2022-10-04T23:58:02.060Z,95391.31
